sensor_id;sensor_type;location;lat;lon;timestamp;temperature;humidity
49821;DHT22;36893;52.520;13.450;2023-06-26T00:02:27;28.80;67.10
49821;DHT22;36893;52.520;13.450;2023-06-26T00:12:29;28.80;67.10
49821;DHT22;36893;52.520;13.450;2023-06-26T00:22:30;28.80;67.00
49821;DHT22;36893;52.520;13.450;2023-06-26T00:32:30;28.80;67.00
49821;DHT22;36893;52.520;13.450;2023-06-26T00:42:31;28.80;67.00
49821;DHT22;36893;52.520;13.450;2023-06-26T00:52:32;28.80;67.00
49821;DHT22;36893;52.520;13.450;2023-06-26T01:02:33;28.90;67.00
49821;DHT22;36893;52.520;13.450;2023-06-26T01:12:34;28.80;66.90
49821;DHT22;36893;52.520;13.450;2023-06-26T01:32:49;28.90;67.10
49821;DHT22;36893;52.520;13.450;2023-06-26T01:42:51;28.80;66.90
49821;DHT22;36893;52.520;13.450;2023-06-26T01:53:10;28.90;67.00
49821;DHT22;36893;52.520;13.450;2023-06-26T02:03:13;28.90;67.10
49821;DHT22;36893;52.520;13.450;2023-06-26T02:13:13;28.90;67.00
49821;DHT22;36893;52.520;13.450;2023-06-26T02:23:14;28.90;67.00
49821;DHT22;36893;52.520;13.450;2023-06-26T02:33:15;28.90;67.00
49821;DHT22;36893;52.520;13.450;2023-06-26T02:43:15;28.90;67.00
49821;DHT22;36893;52.520;13.450;2023-06-26T02:53:16;28.90;67.00
49821;DHT22;36893;52.520;13.450;2023-06-26T03:03:17;28.90;67.00
49821;DHT22;36893;52.520;13.450;2023-06-26T03:13:17;28.90;67.00
49821;DHT22;36893;52.520;13.450;2023-06-26T03:23:18;28.90;67.00
49821;DHT22;36893;52.520;13.450;2023-06-26T03:33:19;28.90;67.00
49821;DHT22;36893;52.520;13.450;2023-06-26T03:43:19;28.90;67.10
49821;DHT22;36893;52.520;13.450;2023-06-26T03:53:20;28.80;67.00
49821;DHT22;36893;52.520;13.450;2023-06-26T04:03:21;28.90;67.00
49821;DHT22;36893;52.520;13.450;2023-06-26T04:13:21;28.90;67.00
49821;DHT22;36893;52.520;13.450;2023-06-26T04:23:22;28.90;67.10
49821;DHT22;36893;52.520;13.450;2023-06-26T04:33:23;28.90;67.00
49821;DHT22;36893;52.520;13.450;2023-06-26T04:43:24;28.90;67.10
49821;DHT22;36893;52.520;13.450;2023-06-26T04:53:25;28.90;67.00
49821;DHT22;36893;52.520;13.450;2023-06-26T05:03:26;28.90;67.00
49821;DHT22;36893;52.520;13.450;2023-06-26T05:13:26;28.90;67.00
49821;DHT22;36893;52.520;13.450;2023-06-26T05:23:33;28.90;67.00
49821;DHT22;36893;52.520;13.450;2023-06-26T05:33:35;28.90;67.10
49821;DHT22;36893;52.520;13.450;2023-06-26T05:43:37;28.90;67.00
49821;DHT22;36893;52.520;13.450;2023-06-26T05:53:38;28.90;67.10
49821;DHT22;36893;52.520;13.450;2023-06-26T06:03:39;29.00;67.10
49821;DHT22;36893;52.520;13.450;2023-06-26T06:13:40;28.80;67.20
49821;DHT22;36893;52.520;13.450;2023-06-26T06:23:41;28.70;67.50
49821;DHT22;36893;52.520;13.450;2023-06-26T06:33:41;28.60;67.40
49821;DHT22;36893;52.520;13.450;2023-06-26T06:43:42;28.60;67.50
49821;DHT22;36893;52.520;13.450;2023-06-26T06:53:43;28.50;67.50
49821;DHT22;36893;52.520;13.450;2023-06-26T07:03:44;28.50;67.50
49821;DHT22;36893;52.520;13.450;2023-06-26T07:13:44;28.60;67.50
49821;DHT22;36893;52.520;13.450;2023-06-26T07:23:45;28.60;67.60
49821;DHT22;36893;52.520;13.450;2023-06-26T07:33:45;28.70;67.50
49821;DHT22;36893;52.520;13.450;2023-06-26T07:43:46;28.70;67.50
49821;DHT22;36893;52.520;13.450;2023-06-26T07:53:47;28.80;67.50
49821;DHT22;36893;52.520;13.450;2023-06-26T08:03:48;28.80;67.50
49821;DHT22;36893;52.520;13.450;2023-06-26T08:13:48;28.80;67.50
49821;DHT22;36893;52.520;13.450;2023-06-26T08:23:49;28.90;67.40
49821;DHT22;36893;52.520;13.450;2023-06-26T08:33:50;28.90;67.40
49821;DHT22;36893;52.520;13.450;2023-06-26T08:43:50;28.90;67.40
49821;DHT22;36893;52.520;13.450;2023-06-26T08:54:00;28.90;67.50
49821;DHT22;36893;52.520;13.450;2023-06-26T09:04:02;28.90;67.70
49821;DHT22;36893;52.520;13.450;2023-06-26T09:14:03;28.90;67.70
49821;DHT22;36893;52.520;13.450;2023-06-26T09:24:08;28.90;67.80
49821;DHT22;36893;52.520;13.450;2023-06-26T09:34:09;28.90;67.80
49821;DHT22;36893;52.520;13.450;2023-06-26T09:44:13;28.90;67.90
49821;DHT22;36893;52.520;13.450;2023-06-26T09:54:16;28.90;68.20
49821;DHT22;36893;52.520;13.450;2023-06-26T10:04:17;28.90;68.40
49821;DHT22;36893;52.520;13.450;2023-06-26T10:14:19;28.90;68.60
49821;DHT22;36893;52.520;13.450;2023-06-26T10:24:23;28.90;68.80
49821;DHT22;36893;52.520;13.450;2023-06-26T10:34:25;28.90;69.10
49821;DHT22;36893;52.520;13.450;2023-06-26T10:44:26;28.90;69.20
49821;DHT22;36893;52.520;13.450;2023-06-26T10:54:29;29.00;69.40
49821;DHT22;36893;52.520;13.450;2023-06-26T11:04:40;29.00;69.60
49821;DHT22;36893;52.520;13.450;2023-06-26T11:14:45;29.00;69.80
49821;DHT22;36893;52.520;13.450;2023-06-26T11:24:46;29.10;70.00
49821;DHT22;36893;52.520;13.450;2023-06-26T11:34:47;29.10;70.10
49821;DHT22;36893;52.520;13.450;2023-06-26T11:44:48;29.10;70.30
49821;DHT22;36893;52.520;13.450;2023-06-26T11:54:49;29.10;70.40
49821;DHT22;36893;52.520;13.450;2023-06-26T12:04:50;29.10;70.50
49821;DHT22;36893;52.520;13.450;2023-06-26T12:14:51;29.20;70.70
49821;DHT22;36893;52.520;13.450;2023-06-26T12:24:52;29.20;71.00
49821;DHT22;36893;52.520;13.450;2023-06-26T12:34:57;29.20;70.90
49821;DHT22;36893;52.520;13.450;2023-06-26T12:44:58;29.20;71.10
49821;DHT22;36893;52.520;13.450;2023-06-26T12:54:59;29.20;71.30
49821;DHT22;36893;52.520;13.450;2023-06-26T13:05:00;29.20;71.40
49821;DHT22;36893;52.520;13.450;2023-06-26T13:15:00;29.20;71.50
49821;DHT22;36893;52.520;13.450;2023-06-26T13:25:01;29.20;71.60
49821;DHT22;36893;52.520;13.450;2023-06-26T13:35:01;29.30;71.80
49821;DHT22;36893;52.520;13.450;2023-06-26T13:45:03;29.30;72.00
49821;DHT22;36893;52.520;13.450;2023-06-26T13:55:04;29.30;72.00
49821;DHT22;36893;52.520;13.450;2023-06-26T14:05:05;29.30;72.10
49821;DHT22;36893;52.520;13.450;2023-06-26T14:15:07;29.30;72.20
49821;DHT22;36893;52.520;13.450;2023-06-26T14:25:12;29.30;72.30
49821;DHT22;36893;52.520;13.450;2023-06-26T14:35:13;29.40;72.40
49821;DHT22;36893;52.520;13.450;2023-06-26T14:45:14;29.40;72.50
49821;DHT22;36893;52.520;13.450;2023-06-26T14:55:14;29.40;72.60
49821;DHT22;36893;52.520;13.450;2023-06-26T15:05:15;29.30;73.20
49821;DHT22;36893;52.520;13.450;2023-06-26T15:15:16;29.20;73.40
49821;DHT22;36893;52.520;13.450;2023-06-26T15:25:17;29.10;73.70
49821;DHT22;36893;52.520;13.450;2023-06-26T15:35:18;29.20;73.90
49821;DHT22;36893;52.520;13.450;2023-06-26T15:45:19;29.30;73.60
49821;DHT22;36893;52.520;13.450;2023-06-26T15:55:22;29.30;73.40
49821;DHT22;36893;52.520;13.450;2023-06-26T16:05:23;29.40;73.20
49821;DHT22;36893;52.520;13.450;2023-06-26T16:15:23;29.40;73.00
49821;DHT22;36893;52.520;13.450;2023-06-26T16:25:24;29.30;73.40
49821;DHT22;36893;52.520;13.450;2023-06-26T16:35:28;29.10;73.90
49821;DHT22;36893;52.520;13.450;2023-06-26T16:45:34;29.00;74.40
49821;DHT22;36893;52.520;13.450;2023-06-26T16:55:35;28.90;74.70
49821;DHT22;36893;52.520;13.450;2023-06-26T17:05:35;28.80;74.90
49821;DHT22;36893;52.520;13.450;2023-06-26T17:15:36;28.70;75.10
49821;DHT22;36893;52.520;13.450;2023-06-26T17:25:37;28.60;75.20
49821;DHT22;36893;52.520;13.450;2023-06-26T17:35:38;28.60;75.30
49821;DHT22;36893;52.520;13.450;2023-06-26T17:45:38;28.50;75.40
49821;DHT22;36893;52.520;13.450;2023-06-26T17:55:39;28.40;75.50
49821;DHT22;36893;52.520;13.450;2023-06-26T18:05:40;28.30;75.60
49821;DHT22;36893;52.520;13.450;2023-06-26T18:15:40;28.30;75.70
49821;DHT22;36893;52.520;13.450;2023-06-26T18:25:41;28.30;75.50
49821;DHT22;36893;52.520;13.450;2023-06-26T18:35:41;28.40;75.40
49821;DHT22;36893;52.520;13.450;2023-06-26T18:45:42;28.30;75.20
49821;DHT22;36893;52.520;13.450;2023-06-26T18:55:43;28.30;75.20
49821;DHT22;36893;52.520;13.450;2023-06-26T19:05:44;28.30;75.20
49821;DHT22;36893;52.520;13.450;2023-06-26T19:15:44;28.20;75.10
49821;DHT22;36893;52.520;13.450;2023-06-26T19:25:46;28.10;75.30
49821;DHT22;36893;52.520;13.450;2023-06-26T19:35:46;27.90;75.30
49821;DHT22;36893;52.520;13.450;2023-06-26T19:45:47;27.80;75.20
49821;DHT22;36893;52.520;13.450;2023-06-26T19:55:48;27.70;74.60
49821;DHT22;36893;52.520;13.450;2023-06-26T20:05:48;27.60;74.10
49821;DHT22;36893;52.520;13.450;2023-06-26T20:15:50;27.50;73.50
49821;DHT22;36893;52.520;13.450;2023-06-26T20:25:51;27.40;73.50
49821;DHT22;36893;52.520;13.450;2023-06-26T20:35:51;27.30;71.80
49821;DHT22;36893;52.520;13.450;2023-06-26T20:45:52;27.10;70.80
49821;DHT22;36893;52.520;13.450;2023-06-26T20:55:53;27.10;70.20
49821;DHT22;36893;52.520;13.450;2023-06-26T21:05:54;27.10;69.40
49821;DHT22;36893;52.520;13.450;2023-06-26T21:15:54;27.10;68.70
49821;DHT22;36893;52.520;13.450;2023-06-26T21:25:56;27.10;68.10
49821;DHT22;36893;52.520;13.450;2023-06-26T21:35:56;27.00;67.50
49821;DHT22;36893;52.520;13.450;2023-06-26T21:45:57;27.00;67.00
49821;DHT22;36893;52.520;13.450;2023-06-26T21:55:58;26.90;66.50
49821;DHT22;36893;52.520;13.450;2023-06-26T22:05:58;26.90;66.20
49821;DHT22;36893;52.520;13.450;2023-06-26T22:15:59;26.80;65.80
49821;DHT22;36893;52.520;13.450;2023-06-26T22:26:00;26.70;65.30
49821;DHT22;36893;52.520;13.450;2023-06-26T22:36:00;26.70;65.00
49821;DHT22;36893;52.520;13.450;2023-06-26T22:46:01;26.70;64.80
49821;DHT22;36893;52.520;13.450;2023-06-26T22:56:01;26.60;64.50
49821;DHT22;36893;52.520;13.450;2023-06-26T23:06:02;26.60;64.40
49821;DHT22;36893;52.520;13.450;2023-06-26T23:16:04;26.50;64.20
49821;DHT22;36893;52.520;13.450;2023-06-26T23:26:05;26.40;64.20
49821;DHT22;36893;52.520;13.450;2023-06-26T23:36:06;26.40;64.30
49821;DHT22;36893;52.520;13.450;2023-06-26T23:46:09;26.30;64.30
49821;DHT22;36893;52.520;13.450;2023-06-26T23:56:13;26.20;64.30
